Terminal Aerodrome Forecast
Issued by NWS Billings, MT

Current Version | Previous Version | Text Only | Print | Product List | Glossary On
Versions: 1 2 3 4 5 6 7 8 9 10 11 12 13 14 15 16 17 18 19 20 21 22 23 24 25 26 27 28 29 30 31 32
790
FTUS45 KBYZ 250535
TAFMLS
TAF
KMLS 250535Z 2506/2606 35013KT P6SM SCT060
     FM251000 28019G31KT P6SM SCT100
     FM251500 29025G30KT P6SM VCSH BKN080
     FM260200 30015KT P6SM BKN100=

USA.gov is the U.S. government's official web portal to all federal, state and local government web resources and services.